sensor_id;sensor_type;location;lat;lon;timestamp;pressure;altitude;pressure_sealevel;temperature;humidity
76311;BME280;65120;59.304;18.294;2023-11-19T00:00:17;102060.94;;;-1.46;67.63
76311;BME280;65120;59.304;18.294;2023-11-19T00:02:44;102057.50;;;-1.46;67.83
76311;BME280;65120;59.304;18.294;2023-11-19T00:05:12;102054.94;;;-1.46;67.58
76311;BME280;65120;59.304;18.294;2023-11-19T00:07:40;102048.78;;;-1.50;67.42
76311;BME280;65120;59.304;18.294;2023-11-19T00:10:08;102047.19;;;-1.48;67.95
76311;BME280;65120;59.304;18.294;2023-11-19T00:12:36;102036.69;;;-1.52;68.15
76311;BME280;65120;59.304;18.294;2023-11-19T00:15:04;102038.44;;;-1.51;67.26
76311;BME280;65120;59.304;18.294;2023-11-19T00:17:31;102040.22;;;-1.50;68.12
76311;BME280;65120;59.304;18.294;2023-11-19T00:19:58;102044.44;;;-1.51;67.81
76311;BME280;65120;59.304;18.294;2023-11-19T00:22:26;102041.88;;;-1.51;67.37
76311;BME280;65120;59.304;18.294;2023-11-19T00:24:53;102035.88;;;-1.51;67.65
76311;BME280;65120;59.304;18.294;2023-11-19T00:27:20;102038.44;;;-1.51;67.26
76311;BME280;65120;59.304;18.294;2023-11-19T00:29:47;102036.69;;;-1.52;67.72
76311;BME280;65120;59.304;18.294;2023-11-19T00:32:13;102031.56;;;-1.52;67.97
76311;BME280;65120;59.304;18.294;2023-11-19T00:34:41;102020.22;;;-1.58;67.27
76311;BME280;65120;59.304;18.294;2023-11-19T00:37:09;102020.38;;;-1.54;67.55
76311;BME280;65120;59.304;18.294;2023-11-19T00:39:38;102023.00;;;-1.53;68.06
76311;BME280;65120;59.304;18.294;2023-11-19T00:42:05;102017.81;;;-1.54;67.50
76311;BME280;65120;59.304;18.294;2023-11-19T00:44:31;102009.09;;;-1.58;67.44
76311;BME280;65120;59.304;18.294;2023-11-19T00:46:58;102008.41;;;-1.54;67.58
76311;BME280;65120;59.304;18.294;2023-11-19T00:49:26;102004.06;;;-1.56;67.38
76311;BME280;65120;59.304;18.294;2023-11-19T00:51:52;102008.38;;;-1.55;67.46
76311;BME280;65120;59.304;18.294;2023-11-19T00:54:19;102010.06;;;-1.56;67.82
76311;BME280;65120;59.304;18.294;2023-11-19T00:56:48;102003.16;;;-1.57;67.76
76311;BME280;65120;59.304;18.294;2023-11-19T00:59:17;101992.03;;;-1.58;67.37
76311;BME280;65120;59.304;18.294;2023-11-19T01:01:44;101985.94;;;-1.60;68.03
76311;BME280;65120;59.304;18.294;2023-11-19T01:04:13;101991.06;;;-1.60;67.27
76311;BME280;65120;59.304;18.294;2023-11-19T01:06:40;101989.31;;;-1.61;67.60
76311;BME280;65120;59.304;18.294;2023-11-19T01:09:08;101984.19;;;-1.61;67.21
76311;BME280;65120;59.304;18.294;2023-11-19T01:11:35;101986.75;;;-1.61;67.46
76311;BME280;65120;59.304;18.294;2023-11-19T01:14:03;101985.88;;;-1.61;67.30
76311;BME280;65120;59.304;18.294;2023-11-19T01:16:30;101979.88;;;-1.62;67.23
76311;BME280;65120;59.304;18.294;2023-11-19T01:18:57;101980.66;;;-1.63;67.19
76311;BME280;65120;59.304;18.294;2023-11-19T01:21:29;101975.38;;;-1.66;66.85
76311;BME280;65120;59.304;18.294;2023-11-19T01:23:56;101979.78;;;-1.63;67.28
76311;BME280;65120;59.304;18.294;2023-11-19T01:26:23;101976.34;;;-1.64;67.29
76311;BME280;65120;59.304;18.294;2023-11-19T01:28:50;101961.31;;;-1.74;67.57
76311;BME280;65120;59.304;18.294;2023-11-19T01:31:19;101984.03;;;-1.64;67.30
76311;BME280;65120;59.304;18.294;2023-11-19T01:33:46;101980.50;;;-1.66;66.89
76311;BME280;65120;59.304;18.294;2023-11-19T01:36:13;101975.38;;;-1.66;67.34
76311;BME280;65120;59.304;18.294;2023-11-19T01:38:40;101979.63;;;-1.66;67.35
76311;BME280;65120;59.304;18.294;2023-11-19T01:41:07;101981.31;;;-1.67;67.27
76311;BME280;65120;59.304;18.294;2023-11-19T01:43:34;101968.50;;;-1.67;67.28
76311;BME280;65120;59.304;18.294;2023-11-19T01:46:03;101970.09;;;-1.69;67.49
76311;BME280;65120;59.304;18.294;2023-11-19T01:48:34;101967.63;;;-1.67;67.58
76311;BME280;65120;59.304;18.294;2023-11-19T01:51:03;101956.44;;;-1.69;67.15
76311;BME280;65120;59.304;18.294;2023-11-19T01:53:30;101951.22;;;-1.71;67.65
76311;BME280;65120;59.304;18.294;2023-11-19T01:55:58;101958.03;;;-1.71;67.22
76311;BME280;65120;59.304;18.294;2023-11-19T01:58:25;101943.47;;;-1.72;67.53
76311;BME280;65120;59.304;18.294;2023-11-19T02:00:52;101944.19;;;-1.75;67.20
76311;BME280;65120;59.304;18.294;2023-11-19T02:03:20;101945.94;;;-1.74;67.32
76311;BME280;65120;59.304;18.294;2023-11-19T02:05:49;101907.56;;;-1.90;67.38
76311;BME280;65120;59.304;18.294;2023-11-19T02:08:16;101933.78;;;-1.78;67.88
76311;BME280;65120;59.304;18.294;2023-11-19T02:10:43;101923.41;;;-1.81;67.52
76311;BME280;65120;59.304;18.294;2023-11-19T02:13:10;101914.75;;;-1.83;66.81
76311;BME280;65120;59.304;18.294;2023-11-19T02:15:39;101923.97;;;-1.87;66.88
76311;BME280;65120;59.304;18.294;2023-11-19T02:18:19;101914.44;;;-1.89;67.69
76311;BME280;65120;59.304;18.294;2023-11-19T02:20:48;101926.38;;;-1.90;67.49
76311;BME280;65120;59.304;18.294;2023-11-19T02:23:16;101916.84;;;-1.92;67.38
76311;BME280;65120;59.304;18.294;2023-11-19T02:25:47;101909.81;;;-1.96;67.06
76311;BME280;65120;59.304;18.294;2023-11-19T02:28:21;101912.19;;;-1.99;66.74
76311;BME280;65120;59.304;18.294;2023-11-19T02:30:48;101902.63;;;-2.04;67.23
76311;BME280;65120;59.304;18.294;2023-11-19T02:33:15;101906.78;;;-2.06;67.47
76311;BME280;65120;59.304;18.294;2023-11-19T02:35:42;101898.94;;;-2.09;67.91
76311;BME280;65120;59.304;18.294;2023-11-19T02:38:09;101889.22;;;-2.16;67.34
76311;BME280;65120;59.304;18.294;2023-11-19T02:40:36;101896.06;;;-2.15;67.03
76311;BME280;65120;59.304;18.294;2023-11-19T02:43:03;101895.94;;;-2.18;67.32
76311;BME280;65120;59.304;18.294;2023-11-19T02:45:32;101888.66;;;-2.27;67.65
76311;BME280;65120;59.304;18.294;2023-11-19T02:47:59;101894.81;;;-2.23;67.50
76311;BME280;65120;59.304;18.294;2023-11-19T02:50:27;101893.84;;;-2.25;67.30
76311;BME280;65120;59.304;18.294;2023-11-19T02:52:55;101894.59;;;-2.28;68.08
76311;BME280;65120;59.304;18.294;2023-11-19T02:55:22;101879.78;;;-2.33;67.69
76311;BME280;65120;59.304;18.294;2023-11-19T02:57:50;101881.53;;;-2.32;67.62
76311;BME280;65120;59.304;18.294;2023-11-19T03:00:19;101881.38;;;-2.35;67.41
76311;BME280;65120;59.304;18.294;2023-11-19T03:02:50;101878.72;;;-2.37;67.77
76311;BME280;65120;59.304;18.294;2023-11-19T03:05:25;101868.44;;;-2.38;68.00
76311;BME280;65120;59.304;18.294;2023-11-19T03:07:55;101856.41;;;-2.39;67.30
76311;BME280;65120;59.304;18.294;2023-11-19T03:10:22;101849.50;;;-2.42;67.84
76311;BME280;65120;59.304;18.294;2023-11-19T03:12:49;101838.19;;;-2.45;67.35
76311;BME280;65120;59.304;18.294;2023-11-19T03:15:16;101848.44;;;-2.45;67.68
76311;BME280;65120;59.304;18.294;2023-11-19T03:17:43;101836.44;;;-2.46;67.67
76311;BME280;65120;59.304;18.294;2023-11-19T03:20:11;101849.88;;;-2.51;67.71
76311;BME280;65120;59.304;18.294;2023-11-19T03:22:41;101843.81;;;-2.53;67.62
76311;BME280;65120;59.304;18.294;2023-11-19T03:25:08;101841.16;;;-2.54;67.71
76311;BME280;65120;59.304;18.294;2023-11-19T03:27:35;101838.53;;;-2.56;67.96
76311;BME280;65120;59.304;18.294;2023-11-19T03:30:04;101828.06;;;-2.60;67.89
76311;BME280;65120;59.304;18.294;2023-11-19T03:32:31;101826.22;;;-2.63;67.42
76311;BME280;65120;59.304;18.294;2023-11-19T03:35:00;101826.22;;;-2.63;68.01
76311;BME280;65120;59.304;18.294;2023-11-19T03:37:28;101822.63;;;-2.66;67.87
76311;BME280;65120;59.304;18.294;2023-11-19T03:39:56;101812.25;;;-2.69;68.11
76311;BME280;65120;59.304;18.294;2023-11-19T03:42:25;101810.31;;;-2.74;67.90
76311;BME280;65120;59.304;18.294;2023-11-19T03:44:52;101812.81;;;-2.75;67.85
76311;BME280;65120;59.304;18.294;2023-11-19T03:47:19;101812.66;;;-2.78;67.76
76311;BME280;65120;59.304;18.294;2023-11-19T03:49:48;101788.09;;;-2.91;67.99
76311;BME280;65120;59.304;18.294;2023-11-19T03:52:15;101808.97;;;-2.83;68.06
76311;BME280;65120;59.304;18.294;2023-11-19T03:54:44;101807.06;;;-2.87;67.80
76311;BME280;65120;59.304;18.294;2023-11-19T03:57:11;101806.88;;;-2.90;67.82
76311;BME280;65120;59.304;18.294;2023-11-19T03:59:38;101801.59;;;-2.94;68.05
76311;BME280;65120;59.304;18.294;2023-11-19T04:02:06;101798.25;;;-2.92;67.80
76311;BME280;65120;59.304;18.294;2023-11-19T04:04:33;101787.88;;;-2.96;68.35
76311;BME280;65120;59.304;18.294;2023-11-19T04:07:00;101792.09;;;-2.96;68.31
76311;BME280;65120;59.304;18.294;2023-11-19T04:09:28;101787.72;;;-2.99;67.89
76311;BME280;65120;59.304;18.294;2023-11-19T04:11:57;101785.06;;;-3.00;68.04
76311;BME280;65120;59.304;18.294;2023-11-19T04:14:24;101776.28;;;-3.05;68.47
76311;BME280;65120;59.304;18.294;2023-11-19T04:16:51;101778.06;;;-3.04;67.89
76311;BME280;65120;59.304;18.294;2023-11-19T04:19:18;101778.78;;;-3.07;67.94
76311;BME280;65120;59.304;18.294;2023-11-19T04:21:45;101770.28;;;-3.06;68.39
76311;BME280;65120;59.304;18.294;2023-11-19T04:24:12;101772.69;;;-3.09;68.40
76311;BME280;65120;59.304;18.294;2023-11-19T04:26:40;101770.94;;;-3.10;68.55
76311;BME280;65120;59.304;18.294;2023-11-19T04:29:11;101765.72;;;-3.11;68.62
76311;BME280;65120;59.304;18.294;2023-11-19T04:31:38;101749.44;;;-3.13;68.71
76311;BME280;65120;59.304;18.294;2023-11-19T04:34:04;101758.00;;;-3.13;68.44
76311;BME280;65120;59.304;18.294;2023-11-19T04:36:32;101752.69;;;-3.16;68.28
76311;BME280;65120;59.304;18.294;2023-11-19T04:38:59;101753.59;;;-3.15;68.38
76311;BME280;65120;59.304;18.294;2023-11-19T04:41:26;101754.47;;;-3.15;68.90
76311;BME280;65120;59.304;18.294;2023-11-19T04:43:53;101742.41;;;-3.18;68.70
76311;BME280;65120;59.304;18.294;2023-11-19T04:46:22;101752.69;;;-3.16;68.70
76311;BME280;65120;59.304;18.294;2023-11-19T04:48:49;101749.38;;;-3.15;68.52
76311;BME280;65120;59.304;18.294;2023-11-19T04:51:16;101736.34;;;-3.20;68.81
76311;BME280;65120;59.304;18.294;2023-11-19T04:53:43;101741.75;;;-3.13;69.18
76311;BME280;65120;59.304;18.294;2023-11-19T04:56:10;101737.38;;;-3.16;68.96
76311;BME280;65120;59.304;18.294;2023-11-19T04:58:38;101735.00;;;-3.13;68.97
76311;BME280;65120;59.304;18.294;2023-11-19T05:01:05;101733.16;;;-3.15;69.30
76311;BME280;65120;59.304;18.294;2023-11-19T05:03:34;101734.19;;;-3.12;69.20
76311;BME280;65120;59.304;18.294;2023-11-19T05:06:01;101732.44;;;-3.13;69.10
76311;BME280;65120;59.304;18.294;2023-11-19T05:08:28;101730.81;;;-3.11;69.06
76311;BME280;65120;59.304;18.294;2023-11-19T05:10:55;101727.50;;;-3.10;69.09
76311;BME280;65120;59.304;18.294;2023-11-19T05:13:23;101729.34;;;-3.07;69.16
76311;BME280;65120;59.304;18.294;2023-11-19T05:15:50;101719.97;;;-3.07;69.41
76311;BME280;65120;59.304;18.294;2023-11-19T05:18:16;101714.06;;;-3.06;69.16
76311;BME280;65120;59.304;18.294;2023-11-19T05:20:45;101713.25;;;-3.05;69.64
76311;BME280;65120;59.304;18.294;2023-11-19T05:23:12;101709.97;;;-3.02;69.52
76311;BME280;65120;59.304;18.294;2023-11-19T05:25:39;101709.19;;;-3.01;69.08
76311;BME280;65120;59.304;18.294;2023-11-19T05:28:05;101711.81;;;-3.00;69.53
76311;BME280;65120;59.304;18.294;2023-11-19T05:30:32;101708.53;;;-2.97;69.40
76311;BME280;65120;59.304;18.294;2023-11-19T05:32:59;101700.97;;;-2.96;69.53
76311;BME280;65120;59.304;18.294;2023-11-19T05:35:26;101696.00;;;-2.92;69.34
76311;BME280;65120;59.304;18.294;2023-11-19T05:37:55;101708.84;;;-2.91;69.40
76311;BME280;65120;59.304;18.294;2023-11-19T05:40:22;101698.72;;;-2.89;69.33
76311;BME280;65120;59.304;18.294;2023-11-19T05:42:48;101704.78;;;-2.87;69.68
76311;BME280;65120;59.304;18.294;2023-11-19T05:45:15;101700.56;;;-2.87;69.75
76311;BME280;65120;59.304;18.294;2023-11-19T05:47:42;101699.84;;;-2.84;69.63
76311;BME280;65120;59.304;18.294;2023-11-19T05:50:10;101693.97;;;-2.82;69.71
76311;BME280;65120;59.304;18.294;2023-11-19T05:52:37;101692.38;;;-2.80;69.56
76311;BME280;65120;59.304;18.294;2023-11-19T05:55:06;101688.13;;;-2.79;69.56
76311;BME280;65120;59.304;18.294;2023-11-19T05:57:35;101689.97;;;-2.77;69.68
76311;BME280;65120;59.304;18.294;2023-11-19T06:00:02;101676.41;;;-2.76;69.63
76311;BME280;65120;59.304;18.294;2023-11-19T06:02:32;101683.34;;;-2.73;69.66
76311;BME280;65120;59.304;18.294;2023-11-19T06:04:59;101675.75;;;-2.72;69.80
76311;BME280;65120;59.304;18.294;2023-11-19T06:07:26;101675.03;;;-2.69;69.79
76311;BME280;65120;59.304;18.294;2023-11-19T06:09:53;101671.66;;;-2.68;69.76
76311;BME280;65120;59.304;18.294;2023-11-19T06:12:21;101675.16;;;-2.66;69.46
76311;BME280;65120;59.304;18.294;2023-11-19T06:14:48;101680.28;;;-2.66;69.76
76311;BME280;65120;59.304;18.294;2023-11-19T06:17:15;101673.41;;;-2.67;70.02
76311;BME280;65120;59.304;18.294;2023-11-19T06:19:42;101671.97;;;-2.62;69.56
76311;BME280;65120;59.304;18.294;2023-11-19T06:22:10;101669.41;;;-2.62;69.91
76311;BME280;65120;59.304;18.294;2023-11-19T06:24:37;101667.00;;;-2.59;69.91
76311;BME280;65120;59.304;18.294;2023-11-19T06:27:04;101658.44;;;-2.59;69.92
76311;BME280;65120;59.304;18.294;2023-11-19T06:29:32;101668.91;;;-2.55;70.19
76311;BME280;65120;59.304;18.294;2023-11-19T06:31:59;101665.53;;;-2.54;69.51
76311;BME280;65120;59.304;18.294;2023-11-19T06:34:26;101665.53;;;-2.54;69.72
76311;BME280;65120;59.304;18.294;2023-11-19T06:36:53;101664.03;;;-2.50;70.10
76311;BME280;65120;59.304;18.294;2023-11-19T06:39:20;101661.47;;;-2.50;69.67
76311;BME280;65120;59.304;18.294;2023-11-19T06:41:47;101658.19;;;-2.47;70.06
76311;BME280;65120;59.304;18.294;2023-11-19T06:44:14;101654.88;;;-2.45;69.44
76311;BME280;65120;59.304;18.294;2023-11-19T06:46:42;101649.75;;;-2.45;69.70
76311;BME280;65120;59.304;18.294;2023-11-19T06:49:09;101647.38;;;-2.42;70.27
76311;BME280;65120;59.304;18.294;2023-11-19T06:51:41;101637.84;;;-2.44;69.67
76311;BME280;65120;59.304;18.294;2023-11-19T06:54:08;101644.88;;;-2.40;69.85
76311;BME280;65120;59.304;18.294;2023-11-19T06:56:35;101642.31;;;-2.40;69.77
76311;BME280;65120;59.304;18.294;2023-11-19T06:59:02;101644.03;;;-2.39;69.29
76311;BME280;65120;59.304;18.294;2023-11-19T07:01:34;101626.94;;;-2.40;69.98
76311;BME280;65120;59.304;18.294;2023-11-19T07:04:03;101625.25;;;-2.40;69.82
76311;BME280;65120;59.304;18.294;2023-11-19T07:06:34;101632.94;;;-2.40;69.84
76311;BME280;65120;59.304;18.294;2023-11-19T07:09:02;101633.75;;;-2.41;69.73
76311;BME280;65120;59.304;18.294;2023-11-19T07:11:35;101620.88;;;-2.42;69.91
76311;BME280;65120;59.304;18.294;2023-11-19T07:14:02;101617.44;;;-2.43;69.62
76311;BME280;65120;59.304;18.294;2023-11-19T07:16:29;101627.69;;;-2.43;69.80
76311;BME280;65120;59.304;18.294;2023-11-19T07:18:56;101624.97;;;-2.46;69.74
76311;BME280;65120;59.304;18.294;2023-11-19T07:21:25;101629.38;;;-2.43;69.90
76311;BME280;65120;59.304;18.294;2023-11-19T07:23:53;101625.06;;;-2.44;69.51
76311;BME280;65120;59.304;18.294;2023-11-19T07:26:23;101625.06;;;-2.44;69.61
76311;BME280;65120;59.304;18.294;2023-11-19T07:28:50;101612.13;;;-2.47;69.84
76311;BME280;65120;59.304;18.294;2023-11-19T07:31:17;101618.19;;;-2.45;69.50
76311;BME280;65120;59.304;18.294;2023-11-19T07:33:45;101608.66;;;-2.48;69.42
76311;BME280;65120;59.304;18.294;2023-11-19T07:36:13;101611.31;;;-2.46;69.82
76311;BME280;65120;59.304;18.294;2023-11-19T07:38:41;101611.16;;;-2.50;69.61
76311;BME280;65120;59.304;18.294;2023-11-19T07:41:08;101613.63;;;-2.51;69.89
76311;BME280;65120;59.304;18.294;2023-11-19T07:43:38;101612.78;;;-2.52;69.78
76311;BME280;65120;59.304;18.294;2023-11-19T07:46:10;101614.47;;;-2.52;69.80
76311;BME280;65120;59.304;18.294;2023-11-19T07:48:41;101611.91;;;-2.52;69.57
76311;BME280;65120;59.304;18.294;2023-11-19T07:51:11;101607.66;;;-2.52;70.06
76311;BME280;65120;59.304;18.294;2023-11-19T07:53:38;101605.91;;;-2.53;70.10
76311;BME280;65120;59.304;18.294;2023-11-19T07:56:07;101610.16;;;-2.53;70.07
76311;BME280;65120;59.304;18.294;2023-11-19T07:58:35;101602.25;;;-2.58;69.76
76311;BME280;65120;59.304;18.294;2023-11-19T08:01:03;101614.38;;;-2.54;70.17
76311;BME280;65120;59.304;18.294;2023-11-19T08:03:30;101620.38;;;-2.53;69.65
76311;BME280;65120;59.304;18.294;2023-11-19T08:05:59;101611.03;;;-2.53;70.17
76311;BME280;65120;59.304;18.294;2023-11-19T08:08:26;101606.78;;;-2.52;69.91
76311;BME280;65120;59.304;18.294;2023-11-19T08:10:55;101612.78;;;-2.52;70.14
76311;BME280;65120;59.304;18.294;2023-11-19T08:13:23;101600.78;;;-2.53;69.64
76311;BME280;65120;59.304;18.294;2023-11-19T08:15:50;101596.56;;;-2.52;70.19
76311;BME280;65120;59.304;18.294;2023-11-19T08:18:17;101604.13;;;-2.54;70.12
76311;BME280;65120;59.304;18.294;2023-11-19T08:20:45;101598.25;;;-2.53;69.88
76311;BME280;65120;59.304;18.294;2023-11-19T08:23:14;101603.34;;;-2.53;70.25
76311;BME280;65120;59.304;18.294;2023-11-19T08:25:41;101601.72;;;-2.51;70.33
76311;BME280;65120;59.304;18.294;2023-11-19T08:28:08;101594.88;;;-2.52;70.36
76311;BME280;65120;59.304;18.294;2023-11-19T08:30:36;101599.16;;;-2.51;70.22
76311;BME280;65120;59.304;18.294;2023-11-19T08:33:03;101600.94;;;-2.50;70.41
76311;BME280;65120;59.304;18.294;2023-11-19T08:35:31;101593.25;;;-2.50;70.49
76311;BME280;65120;59.304;18.294;2023-11-19T08:37:58;101603.63;;;-2.46;70.59
76311;BME280;65120;59.304;18.294;2023-11-19T08:40:25;101600.25;;;-2.45;70.10
76311;BME280;65120;59.304;18.294;2023-11-19T08:42:52;101606.34;;;-2.43;70.72
76311;BME280;65120;59.304;18.294;2023-11-19T08:45:19;101591.84;;;-2.43;70.80
76311;BME280;65120;59.304;18.294;2023-11-19T08:47:47;101591.13;;;-2.40;70.29
76311;BME280;65120;59.304;18.294;2023-11-19T08:50:14;101596.38;;;-2.37;70.76
76311;BME280;65120;59.304;18.294;2023-11-19T08:52:41;101595.66;;;-2.35;70.91
76311;BME280;65120;59.304;18.294;2023-11-19T08:55:08;101584.63;;;-2.34;70.54
76311;BME280;65120;59.304;18.294;2023-11-19T08:57:35;101585.66;;;-2.30;70.61
76311;BME280;65120;59.304;18.294;2023-11-19T09:00:01;101579.72;;;-2.29;70.70
76311;BME280;65120;59.304;18.294;2023-11-19T09:02:28;101577.28;;;-2.26;70.80
76311;BME280;65120;59.304;18.294;2023-11-19T09:04:56;101572.25;;;-2.24;70.91
76311;BME280;65120;59.304;18.294;2023-11-19T09:07:24;101586.06;;;-2.21;70.75
76311;BME280;65120;59.304;18.294;2023-11-19T09:09:50;101576.84;;;-2.17;71.08
76311;BME280;65120;59.304;18.294;2023-11-19T09:12:17;101576.13;;;-2.15;70.61
76311;BME280;65120;59.304;18.294;2023-11-19T09:14:44;101579.75;;;-2.10;71.34
76311;BME280;65120;59.304;18.294;2023-11-19T09:17:11;101572.22;;;-2.07;70.94
76311;BME280;65120;59.304;18.294;2023-11-19T09:19:38;101561.25;;;-2.04;71.36
76311;BME280;65120;59.304;18.294;2023-11-19T09:22:07;101552.75;;;-2.03;70.83
76311;BME280;65120;59.304;18.294;2023-11-19T09:24:34;101552.16;;;-1.97;70.87
76311;BME280;65120;59.304;18.294;2023-11-19T09:27:00;101544.56;;;-1.96;71.20
76311;BME280;65120;59.304;18.294;2023-11-19T09:29:27;101548.13;;;-1.92;70.70
76311;BME280;65120;59.304;18.294;2023-11-19T09:31:54;101549.13;;;-1.89;71.08
76311;BME280;65120;59.304;18.294;2023-11-19T09:34:21;101535.59;;;-1.86;70.62
76311;BME280;65120;59.304;18.294;2023-11-19T09:36:48;101534.09;;;-1.81;70.82
76311;BME280;65120;59.304;18.294;2023-11-19T09:39:16;101532.50;;;-1.79;70.66
76311;BME280;65120;59.304;18.294;2023-11-19T09:41:43;101534.38;;;-1.75;70.63
76311;BME280;65120;59.304;18.294;2023-11-19T09:44:11;101525.94;;;-1.72;70.41
76311;BME280;65120;59.304;18.294;2023-11-19T09:46:38;101534.63;;;-1.69;70.83
76311;BME280;65120;59.304;18.294;2023-11-19T09:49:06;101535.59;;;-1.67;70.46
76311;BME280;65120;59.304;18.294;2023-11-19T09:51:36;101509.75;;;-1.71;70.65
76311;BME280;65120;59.304;18.294;2023-11-19T09:54:03;101520.41;;;-1.62;71.28
76311;BME280;65120;59.304;18.294;2023-11-19T09:56:33;101513.66;;;-1.60;70.94
76311;BME280;65120;59.304;18.294;2023-11-19T09:59:02;101516.28;;;-1.59;70.64
76311;BME280;65120;59.304;18.294;2023-11-19T10:01:29;101504.47;;;-1.55;71.33
76311;BME280;65120;59.304;18.294;2023-11-19T10:03:57;101515.69;;;-1.53;70.28
76311;BME280;65120;59.304;18.294;2023-11-19T10:06:25;101509.72;;;-1.52;70.52
76311;BME280;65120;59.304;18.294;2023-11-19T10:08:52;101502.25;;;-1.47;70.70
76311;BME280;65120;59.304;18.294;2023-11-19T10:11:20;101507.50;;;-1.44;70.92
76311;BME280;65120;59.304;18.294;2023-11-19T10:13:49;101505.06;;;-1.41;71.21
76311;BME280;65120;59.304;18.294;2023-11-19T10:16:17;101492.38;;;-1.38;70.86
76311;BME280;65120;59.304;18.294;2023-11-19T10:18:45;101488.19;;;-1.36;70.36
76311;BME280;65120;59.304;18.294;2023-11-19T10:21:12;101478.06;;;-1.33;70.69
76311;BME280;65120;59.304;18.294;2023-11-19T10:23:52;101491.00;;;-1.30;70.36
76311;BME280;65120;59.304;18.294;2023-11-19T10:26:19;101482.56;;;-1.27;71.03
76311;BME280;65120;59.304;18.294;2023-11-19T10:28:48;101485.25;;;-1.24;70.84
76311;BME280;65120;59.304;18.294;2023-11-19T10:31:15;101479.28;;;-1.25;70.45
76311;BME280;65120;59.304;18.294;2023-11-19T10:33:43;101476.00;;;-1.21;70.17
76311;BME280;65120;59.304;18.294;2023-11-19T10:36:10;101475.25;;;-1.18;70.16
76311;BME280;65120;59.304;18.294;2023-11-19T10:38:38;101462.25;;;-1.23;70.61
76311;BME280;65120;59.304;18.294;2023-11-19T10:41:05;101456.56;;;-1.16;70.78
76311;BME280;65120;59.304;18.294;2023-11-19T10:43:42;101457.56;;;-1.12;70.41
76311;BME280;65120;59.304;18.294;2023-11-19T10:46:12;101456.75;;;-1.11;70.13
76311;BME280;65120;59.304;18.294;2023-11-19T10:48:39;101446.50;;;-1.11;70.50
76311;BME280;65120;59.304;18.294;2023-11-19T10:51:07;101449.84;;;-1.12;70.10
76311;BME280;65120;59.304;18.294;2023-11-19T10:53:37;101445.69;;;-1.10;70.19
76311;BME280;65120;59.304;18.294;2023-11-19T10:56:06;101454.31;;;-1.08;69.96
76311;BME280;65120;59.304;18.294;2023-11-19T10:58:37;101451.78;;;-1.06;69.80
76311;BME280;65120;59.304;18.294;2023-11-19T11:01:11;101447.59;;;-1.04;70.21
76311;BME280;65120;59.304;18.294;2023-11-19T11:03:40;101449.31;;;-1.05;70.06
76311;BME280;65120;59.304;18.294;2023-11-19T11:06:08;101448.56;;;-1.02;70.73
76311;BME280;65120;59.304;18.294;2023-11-19T11:08:36;101438.28;;;-1.02;70.07
76311;BME280;65120;59.304;18.294;2023-11-19T11:11:05;101440.06;;;-1.00;69.87
76311;BME280;65120;59.304;18.294;2023-11-19T11:13:33;101436.72;;;-0.99;70.34
76311;BME280;65120;59.304;18.294;2023-11-19T11:16:00;101435.88;;;-0.98;70.17
76311;BME280;65120;59.304;18.294;2023-11-19T11:18:31;101423.94;;;-0.97;69.90
76311;BME280;65120;59.304;18.294;2023-11-19T11:21:00;101431.63;;;-0.97;69.97
76311;BME280;65120;59.304;18.294;2023-11-19T11:23:47;101431.63;;;-0.97;70.40
76311;BME280;65120;59.304;18.294;2023-11-19T11:26:42;101424.00;;;-0.96;70.07
76311;BME280;65120;59.304;18.294;2023-11-19T11:29:20;101423.13;;;-0.96;69.85
76311;BME280;65120;59.304;18.294;2023-11-19T11:31:57;101413.78;;;-0.94;69.75
76311;BME280;65120;59.304;18.294;2023-11-19T11:37:31;101408.75;;;-0.93;70.15
76311;BME280;65120;59.304;18.294;2023-11-19T11:39:59;101404.47;;;-0.92;69.58
76311;BME280;65120;59.304;18.294;2023-11-19T11:42:34;101406.19;;;-0.93;69.82
76311;BME280;65120;59.304;18.294;2023-11-19T11:45:03;101406.19;;;-0.93;69.71
76311;BME280;65120;59.304;18.294;2023-11-19T11:48:10;101402.97;;;-0.87;69.19
76311;BME280;65120;59.304;18.294;2023-11-19T11:51:03;101404.72;;;-0.86;69.23
76311;BME280;65120;59.304;18.294;2023-11-19T11:53:30;101399.56;;;-0.86;69.23
76311;BME280;65120;59.304;18.294;2023-11-19T11:55:57;101398.72;;;-0.86;69.49
76311;BME280;65120;59.304;18.294;2023-11-19T11:58:35;101402.13;;;-0.86;70.11
76311;BME280;65120;59.304;18.294;2023-11-19T12:01:04;101397.84;;;-0.87;69.64
76311;BME280;65120;59.304;18.294;2023-11-19T12:03:32;101397.84;;;-0.87;69.58
76311;BME280;65120;59.304;18.294;2023-11-19T12:06:00;101399.56;;;-0.86;69.38
76311;BME280;65120;59.304;18.294;2023-11-19T12:08:30;101400.44;;;-0.85;69.90
76311;BME280;65120;59.304;18.294;2023-11-19T12:10:58;101398.72;;;-0.86;69.16
76311;BME280;65120;59.304;18.294;2023-11-19T12:13:44;101396.16;;;-0.86;69.63
76311;BME280;65120;59.304;18.294;2023-11-19T12:16:13;101391.78;;;-0.89;69.91
76311;BME280;65120;59.304;18.294;2023-11-19T12:18:40;101383.28;;;-0.88;69.72
76311;BME280;65120;59.304;18.294;2023-11-19T12:21:10;101389.31;;;-0.86;69.58
76311;BME280;65120;59.304;18.294;2023-11-19T12:23:45;101386.81;;;-0.84;69.15
76311;BME280;65120;59.304;18.294;2023-11-19T12:26:33;101378.25;;;-0.85;69.80
76311;BME280;65120;59.304;18.294;2023-11-19T12:29:01;101368.03;;;-0.83;70.00
76311;BME280;65120;59.304;18.294;2023-11-19T12:31:29;101369.66;;;-0.85;69.71
76311;BME280;65120;59.304;18.294;2023-11-19T12:33:57;101358.66;;;-0.83;69.82
76311;BME280;65120;59.304;18.294;2023-11-19T12:36:23;101359.56;;;-0.82;69.61
76311;BME280;65120;59.304;18.294;2023-11-19T12:38:52;101364.72;;;-0.81;69.82
76311;BME280;65120;59.304;18.294;2023-11-19T12:41:19;101367.28;;;-0.81;70.21
76311;BME280;65120;59.304;18.294;2023-11-19T12:43:49;101372.53;;;-0.78;69.35
76311;BME280;65120;59.304;18.294;2023-11-19T12:46:19;101364.72;;;-0.81;69.80
76311;BME280;65120;59.304;18.294;2023-11-19T12:48:47;101363.75;;;-0.84;69.51